Diadema Argentina, Argentina
Current Conditions -  °F | °C
As of 8:00 AM on Friday 24 Oct 2014 (Local Time) from SAVC Reporting Station
Clear Clear  
Wind Chill: 59°   Ceiling: Unl
Heat Index: 59°   Visibility: 6mi
Dew Point: 36°   Wind: 6mph
Humidity: 42%   Direction: 320°NW
Pressure: 30.03"   Gusts: NA
Location:  45.77°S, 67.67°W
Report Text: SAVC 241100Z 32005KT CAVOK 15/02 Q1017
Loading
Personal Weather Stations






























Interactive Weather Map
Tropical Storm Tracking
New forecast layout! Learn more

10-Day Weather Forecast

Advertisements
Track Severe Weather on mobile